Time;durP1;ratioP1;P1;durP2;ratioP2;P2;SDS_P1;SDS_P2;PMS_P1;PMS_P2;Temp;Humidity;BMP_temperature;BMP_pressure;BME280_temperature;BME280_humidity;BME280_pressure;Samples;Min_cycle;Max_cycle;Signal;HPM_P1;HPM_P2
2023/11/27 00:00:17;;;;;;;16.45;5.28;;;;;;;-2.20;67.36;97711.19;4959470;28;20043;-78
2023/11/27 00:02:43;;;;;;;11.27;5.35;;;;;;;-2.19;66.96;97684.88;4958792;28;20046;-79
2023/11/27 00:05:09;;;;;;;11.95;5.72;;;;;;;-2.24;67.55;97671.22;4943246;29;20046;-74
2023/11/27 00:07:37;;;;;;;11.70;5.75;;;;;;;-2.20;66.97;97687.38;4949747;28;20047;-72
2023/11/27 00:10:03;;;;;;;13.90;5.60;;;;;;;-2.20;67.72;97674.66;4957250;28;20475;-73
2023/11/27 00:12:30;;;;;;;9.65;5.40;;;;;;;-2.21;67.14;97658.53;4939871;28;20050;-71
2023/11/27 00:14:58;;;;;;;12.90;5.88;;;;;;;-2.55;67.72;97599.66;4956639;28;20099;-71
2023/11/27 00:17:25;;;;;;;10.48;5.70;;;;;;;-2.45;67.59;97621.81;4955528;28;20039;-71
2023/11/27 00:19:51;;;;;;;12.60;5.50;;;;;;;-2.43;67.53;97611.66;4936458;28;20047;-71
2023/11/27 00:22:27;;;;;;;11.65;6.07;;;;;;;-2.21;67.62;97629.66;4933868;28;20565;-73
2023/11/27 00:24:53;;;;;;;9.52;5.05;;;;;;;-2.34;67.18;97626.16;4962179;28;20118;-71
2023/11/27 00:27:19;;;;;;;11.18;5.88;;;;;;;-2.55;67.26;97576.75;4955497;28;20557;-71
2023/11/27 00:29:45;;;;;;;11.93;5.70;;;;;;;-2.70;67.05;97544.34;4938133;28;20065;-73
2023/11/27 00:32:12;;;;;;;15.52;5.80;;;;;;;-2.55;67.41;97571.66;4937374;28;20506;-73
2023/11/27 00:34:37;;;;;;;11.45;6.13;;;;;;;-2.72;67.29;97538.41;4970130;28;20039;-73
2023/11/27 00:37:03;;;;;;;11.45;6.10;;;;;;;-2.66;67.51;97528.28;4956262;28;20047;-71
2023/11/27 00:39:30;;;;;;;11.73;5.65;;;;;;;-2.43;67.87;97575.97;4955478;28;20064;-71
2023/11/27 00:41:56;;;;;;;11.70;5.50;;;;;;;-2.65;68.01;97518.94;4958702;28;20031;-73
2023/11/27 00:44:25;;;;;;;10.77;4.75;;;;;;;-2.54;67.70;97504.59;4943015;28;20035;-73
2023/11/27 00:46:55;;;;;;;12.50;5.80;;;;;;;-3.16;67.66;97397.22;4943201;28;20414;-76
2023/11/27 00:49:21;;;;;;;12.38;5.53;;;;;;;-2.52;67.59;97497.78;4944020;28;20383;-73
2023/11/27 00:51:50;;;;;;;12.07;5.07;;;;;;;-2.47;67.54;97520.75;4955372;28;20375;-71
2023/11/27 00:54:17;;;;;;;12.57;5.97;;;;;;;-3.03;67.99;97433.78;4975652;28;20039;-74
2023/11/27 00:56:46;;;;;;;10.25;5.20;;;;;;;-2.51;67.93;97494.41;4927397;29;20047;-73
2023/11/27 00:59:12;;;;;;;9.95;5.55;;;;;;;-2.44;68.25;97483.41;4960506;28;20046;-73
2023/11/27 01:01:39;;;;;;;10.68;5.05;;;;;;;-2.60;67.16;97461.25;4942798;28;20076;-72
2023/11/27 01:04:08;;;;;;;13.40;6.20;;;;;;;-2.69;67.84;97435.72;4955860;28;20040;-74
2023/11/27 01:06:34;;;;;;;12.63;5.80;;;;;;;-2.68;67.43;97437.41;4966230;28;20042;-74
2023/11/27 01:09:00;;;;;;;10.40;5.63;;;;;;;-2.46;67.67;97458.78;4973689;28;20039;-72
2023/11/27 01:11:26;;;;;;;12.05;5.95;;;;;;;-2.68;66.55;97423.00;4955617;28;20068;-73
2023/11/27 01:13:52;;;;;;;10.15;5.65;;;;;;;-2.83;67.65;97397.44;4957692;28;20053;-70
2023/11/27 01:16:21;;;;;;;10.93;5.38;;;;;;;-2.64;66.86;97378.88;4968696;28;20045;-71
2023/11/27 01:18:48;;;;;;;12.90;5.68;;;;;;;-2.65;67.70;97389.06;4929813;29;20405;-71
2023/11/27 01:21:14;;;;;;;11.35;5.88;;;;;;;-2.60;68.05;97364.47;4942421;28;20035;-71
2023/11/27 01:23:44;;;;;;;10.98;5.10;;;;;;;-2.40;67.79;97414.66;4957398;28;20047;-72
2023/11/27 01:26:10;;;;;;;12.65;5.00;;;;;;;-2.59;67.20;97374.66;4943082;28;20043;-72
2023/11/27 01:28:39;;;;;;;11.98;5.63;;;;;;;-2.60;68.40;97361.94;4941707;29;20054;-71
2023/11/27 01:31:06;;;;;;;11.75;5.10;;;;;;;-2.36;67.71;97404.47;4958563;28;20042;-70
2023/11/27 01:33:32;;;;;;;11.52;5.13;;;;;;;-2.34;67.98;97404.50;4937878;28;20043;-72
2023/11/27 01:35:59;;;;;;;10.30;4.85;;;;;;;-2.19;67.93;97363.78;4940582;28;20066;-73
2023/11/27 01:38:25;;;;;;;9.68;4.53;;;;;;;-2.17;67.85;97349.34;4934516;28;20039;-72
2023/11/27 01:40:51;;;;;;;9.23;4.38;;;;;;;-2.24;67.73;97324.69;4955832;28;20075;-76
2023/11/27 01:43:23;;;;;;;11.02;5.00;;;;;;;-2.12;67.55;97372.28;4927814;28;20102;-74
2023/11/27 01:46:06;;;;;;;8.60;4.78;;;;;;;-2.43;67.59;97352.66;4960824;28;20044;-76
2023/11/27 01:48:32;;;;;;;8.13;4.50;;;;;;;-2.34;67.62;97323.81;4938743;28;20058;-74
2023/11/27 01:50:58;;;;;;;13.90;5.05;;;;;;;-2.22;67.58;97294.97;4958000;28;20043;-74
2023/11/27 01:53:25;;;;;;;7.50;4.20;;;;;;;-2.18;68.02;97294.13;4953683;28;20395;-73
2023/11/27 01:55:51;;;;;;;8.45;4.68;;;;;;;-1.98;67.80;97323.91;4970729;28;20138;-71
2023/11/27 01:58:19;;;;;;;9.77;4.43;;;;;;;-1.86;68.26;97346.84;4942741;29;20454;-71
2023/11/27 02:00:46;;;;;;;10.45;4.68;;;;;;;-1.78;68.33;97336.69;4942508;29;20066;-72
2023/11/27 02:03:15;;;;;;;8.02;4.35;;;;;;;-1.68;67.69;97324.78;4933085;28;20040;-71
2023/11/27 02:05:44;;;;;;;9.77;4.57;;;;;;;-1.74;67.98;97317.97;4940955;29;20130;-72
2023/11/27 02:08:12;;;;;;;8.73;4.38;;;;;;;-1.88;68.10;97241.50;4941708;28;20109;-73
2023/11/27 02:10:38;;;;;;;7.88;4.03;;;;;;;-1.86;68.21;97251.69;4953267;28;20050;-74
2023/11/27 02:13:04;;;;;;;11.30;4.32;;;;;;;-1.63;68.11;97289.91;4955584;28;20410;-72
2023/11/27 02:15:32;;;;;;;8.07;4.45;;;;;;;-1.59;68.04;97309.47;4942640;28;20054;-74
2023/11/27 02:17:58;;;;;;;10.98;4.35;;;;;;;-1.48;68.13;97298.41;4952898;28;20098;-73
2023/11/27 02:20:24;;;;;;;8.57;3.85;;;;;;;-1.67;68.13;97258.47;4943598;28;20089;-74
2023/11/27 02:22:54;;;;;;;9.57;3.80;;;;;;;-1.90;67.60;97193.88;4956826;28;20047;-73
2023/11/27 02:25:20;;;;;;;8.82;4.25;;;;;;;-1.77;67.21;97202.38;4965388;28;20107;-73
2023/11/27 02:27:46;;;;;;;8.73;4.40;;;;;;;-1.70;68.14;97181.13;4942508;29;20043;-72
2023/11/27 02:30:13;;;;;;;7.75;4.00;;;;;;;-1.43;67.75;97207.41;4956532;28;20067;-72
2023/11/27 02:32:43;;;;;;;7.82;4.15;;;;;;;-1.38;67.99;97201.44;4937140;28;20109;-73
2023/11/27 02:35:09;;;;;;;8.32;4.22;;;;;;;-1.30;68.48;97201.44;4941474;29;20043;-73
2023/11/27 02:37:35;;;;;;;7.82;4.13;;;;;;;-1.23;68.08;97210.78;4940723;28;20047;-72
2023/11/27 02:40:05;;;;;;;9.10;3.95;;;;;;;-1.45;67.52;97160.66;4972143;28;20070;-73
2023/11/27 02:42:33;;;;;;;9.05;4.45;;;;;;;-1.78;67.18;97104.66;4926469;29;20039;-74
2023/11/27 02:44:59;;;;;;;7.25;3.97;;;;;;;-1.82;68.02;97064.72;4953194;28;20126;-73
2023/11/27 02:47:26;;;;;;;5.95;3.45;;;;;;;-1.61;68.47;97094.38;4956710;28;20039;-76
2023/11/27 02:49:55;;;;;;;7.47;3.95;;;;;;;-2.12;68.17;96990.03;4958085;28;20106;-73
2023/11/27 02:52:21;;;;;;;5.88;3.08;;;;;;;-1.55;68.28;97066.28;4953972;28;20044;-74
2023/11/27 02:54:55;;;;;;;7.68;3.30;;;;;;;-1.24;68.61;97094.22;4925227;28;20054;-75
2023/11/27 02:57:22;;;;;;;8.13;3.60;;;;;;;-0.94;68.80;97178.31;4955996;28;20051;-75
2023/11/27 02:59:50;;;;;;;8.07;3.33;;;;;;;-0.87;68.12;97176.56;4956182;28;20049;-75
2023/11/27 03:02:17;;;;;;;7.05;3.70;;;;;;;-0.89;68.80;97137.44;4956976;28;20039;-74
2023/11/27 03:04:43;;;;;;;6.65;3.35;;;;;;;-0.96;69.19;97099.16;4971201;28;20103;-75
2023/11/27 03:07:10;;;;;;;5.85;3.50;;;;;;;-0.63;68.61;97124.50;4933264;28;20035;-76
2023/11/27 03:09:42;;;;;;;6.80;3.40;;;;;;;-0.61;68.70;97103.22;4942346;28;20043;-76
2023/11/27 03:12:08;;;;;;;5.70;3.50;;;;;;;-0.75;68.04;97064.13;4972720;28;20035;-76
2023/11/27 03:14:34;;;;;;;5.57;2.97;;;;;;;-1.06;68.35;96995.44;4958518;28;20050;-75
2023/11/27 03:17:02;;;;;;;5.60;3.50;;;;;;;-0.53;68.36;97053.75;4956650;28;20050;-75
2023/11/27 03:19:28;;;;;;;6.15;3.08;;;;;;;-1.06;68.41;96936.72;4934876;29;20044;-74
2023/11/27 03:21:54;;;;;;;7.45;3.45;;;;;;;-0.42;68.37;97005.09;4958055;28;20063;-74
2023/11/27 03:24:21;;;;;;;4.45;3.08;;;;;;;-0.39;69.06;97026.38;4958688;28;20394;-72
2023/11/27 03:26:47;;;;;;;5.53;2.75;;;;;;;-0.26;69.48;97054.34;4948336;28;20518;-73
2023/11/27 03:29:13;;;;;;;5.65;2.92;;;;;;;-0.26;68.95;97087.59;4952614;28;20138;-74
2023/11/27 03:31:39;;;;;;;2.85;2.00;;;;;;;-0.46;69.00;97165.25;4953712;28;20051;-74
2023/11/27 03:34:08;;;;;;;4.82;3.03;;;;;;;-0.33;68.22;97199.25;4956154;28;20111;-75
2023/11/27 03:36:38;;;;;;;3.95;2.47;;;;;;;-0.37;68.78;97169.47;4955231;28;20043;-74
2023/11/27 03:39:05;;;;;;;4.65;2.67;;;;;;;-0.27;69.15;97162.56;4957130;28;20050;-74
2023/11/27 03:41:31;;;;;;;4.38;2.30;;;;;;;-0.40;68.88;97118.38;4955322;28;20049;-74
2023/11/27 03:43:57;;;;;;;3.83;2.20;;;;;;;-0.46;68.57;97099.69;4950443;28;20058;-74
2023/11/27 03:46:24;;;;;;;3.85;2.40;;;;;;;-0.28;69.08;97096.97;4947758;28;20043;-72
2023/11/27 03:48:50;;;;;;;3.47;2.20;;;;;;;-0.09;69.59;97087.44;4956686;28;20039;-71
2023/11/27 03:51:16;;;;;;;4.25;2.30;;;;;;;-0.10;69.72;97070.41;4952905;28;20063;-72
2023/11/27 03:53:43;;;;;;;5.22;2.30;;;;;;;0.10;69.69;97065.94;4955978;28;20459;-72
2023/11/27 03:56:09;;;;;;;4.20;2.53;;;;;;;0.27;69.69;97073.44;4935864;28;20168;-73
2023/11/27 03:58:35;;;;;;;4.03;2.45;;;;;;;0.32;70.29;97041.84;4944621;28;20142;-71
2023/11/27 04:01:04;;;;;;;3.40;1.95;;;;;;;0.29;69.47;97027.34;4955141;28;20395;-73
2023/11/27 04:03:31;;;;;;;2.42;1.60;;;;;;;0.20;69.61;97061.56;4955988;28;20066;-73
2023/11/27 04:06:04;;;;;;;3.53;1.95;;;;;;;0.39;68.44;97115.06;4951618;28;20070;-74
2023/11/27 04:08:30;;;;;;;2.13;1.75;;;;;;;-0.35;69.77;96993.97;4934967;29;20047;-72
2023/11/27 04:10:56;;;;;;;3.38;1.92;;;;;;;0.13;69.84;97054.81;4957136;28;20039;-72
2023/11/27 04:13:23;;;;;;;2.97;1.83;;;;;;;-0.11;69.90;96984.34;4938362;28;20040;-72
2023/11/27 04:15:49;;;;;;;4.47;2.15;;;;;;;0.49;70.11;97050.16;4941236;28;20402;-72
2023/11/27 04:18:21;;;;;;;4.35;2.20;;;;;;;0.60;69.97;97042.31;4959186;28;20047;-72
2023/11/27 04:20:47;;;;;;;3.65;2.03;;;;;;;0.30;69.84;96970.22;4958601;28;20046;-71
2023/11/27 04:23:13;;;;;;;3.97;2.53;;;;;;;0.87;70.17;97043.66;4958914;28;20047;-71
2023/11/27 04:25:40;;;;;;;4.50;2.00;;;;;;;0.71;69.67;97012.31;4957690;28;20042;-72
2023/11/27 04:28:06;;;;;;;3.30;1.70;;;;;;;0.77;69.70;97021.63;4941055;28;20039;-72
2023/11/27 04:30:33;;;;;;;4.50;2.38;;;;;;;0.34;69.63;96924.94;4959108;28;20066;-70
2023/11/27 04:33:00;;;;;;;6.95;3.15;;;;;;;0.99;69.60;97000.84;4959361;28;20066;-70
2023/11/27 04:35:31;;;;;;;4.07;2.40;;;;;;;0.92;70.04;96997.50;4960347;28;20049;-71
2023/11/27 04:38:00;;;;;;;;;;;;;;;1.00;69.87;97020.41;4959429;28;20047;-71
2023/11/27 04:40:26;;;;;;;4.18;2.35;;;;;;;0.87;69.87;96999.31;4960162;28;20309;-69
2023/11/27 04:42:52;;;;;;;3.50;2.13;;;;;;;1.08;70.03;97018.59;4958501;28;21581;-70
2023/11/27 04:45:18;;;;;;;3.88;2.20;;;;;;;1.07;70.89;97011.78;4950956;28;20039;-68
2023/11/27 04:47:45;;;;;;;3.97;2.10;;;;;;;1.07;70.72;97016.06;4974089;28;20043;-69
2023/11/27 04:50:11;;;;;;;2.88;1.80;;;;;;;1.09;71.05;97022.03;4958704;28;20042;-68
2023/11/27 04:52:40;;;;;;;3.15;1.77;;;;;;;1.31;71.28;97012.28;4928995;28;20094;-68
2023/11/27 04:55:10;;;;;;;;;;;;;;;1.43;70.77;97041.97;4951831;29;20035;-70
2023/11/27 04:57:37;;;;;;;2.58;1.60;;;;;;;1.00;71.34;96952.13;4937606;28;19922;-69
2023/11/27 05:00:05;;;;;;;3.75;1.95;;;;;;;1.49;71.77;97014.53;4957331;28;20043;-70
2023/11/27 05:02:32;;;;;;;3.38;1.63;;;;;;;1.45;71.76;96979.56;4957163;28;20053;-70
2023/11/27 05:04:58;;;;;;;1.85;1.50;;;;;;;1.65;72.00;96999.72;4958960;28;20036;-69
2023/11/27 05:07:33;;;;;;;2.85;1.63;;;;;;;1.52;71.63;96966.66;4956356;28;20483;-68
2023/11/27 05:10:00;;;;;;;4.43;1.80;;;;;;;1.53;71.74;96974.31;4968806;28;20043;-69
2023/11/27 05:12:26;;;;;;;2.83;1.60;;;;;;;1.67;71.59;96993.72;4941800;28;20062;-68
2023/11/27 05:14:52;;;;;;;3.55;2.10;;;;;;;1.75;72.08;97002.13;4955995;28;20493;-70
2023/11/27 05:17:19;;;;;;;5.97;2.30;;;;;;;1.39;72.35;96927.56;4939554;28;20046;-74
2023/11/27 05:19:45;;;;;;;3.80;1.85;;;;;;;1.80;72.09;97003.75;4959117;28;20047;-75
2023/11/27 05:22:15;;;;;;;2.58;1.85;;;;;;;1.85;72.83;97002.81;4957516;28;20051;-75
2023/11/27 05:24:41;;;;;;;2.63;1.80;;;;;;;1.90;72.73;97009.53;4961014;28;20050;-75
2023/11/27 05:27:07;;;;;;;2.00;1.40;;;;;;;1.75;72.75;96985.03;4950579;28;20086;-71
2023/11/27 05:29:36;;;;;;;2.58;1.40;;;;;;;1.69;73.14;96963.78;4974693;28;20091;-75
2023/11/27 05:32:08;;;;;;;2.30;1.40;;;;;;;1.81;72.95;96953.28;4957167;28;20054;-74
2023/11/27 05:34:43;;;;;;;3.00;1.40;;;;;;;1.90;73.15;96957.38;4957128;28;20505;-74
2023/11/27 05:37:09;;;;;;;3.47;1.50;;;;;;;1.99;73.55;96956.38;4957264;28;20047;-72
2023/11/27 05:39:35;;;;;;;2.13;1.38;;;;;;;1.77;72.85;96905.50;4971792;28;20055;-73
2023/11/27 05:42:03;;;;;;;1.95;1.25;;;;;;;2.24;73.33;96977.25;4943493;28;20078;-74
2023/11/27 05:44:30;;;;;;;2.65;1.23;;;;;;;2.07;73.08;96942.53;4946475;28;20047;-73
2023/11/27 05:46:56;;;;;;;2.88;1.55;;;;;;;2.00;73.44;96938.38;4943120;28;20077;-74
2023/11/27 05:49:22;;;;;;;3.10;1.58;;;;;;;2.08;73.47;96938.22;4956996;28;20075;-73
2023/11/27 05:51:48;;;;;;;1.60;1.10;;;;;;;2.15;72.67;96955.19;4950662;28;20043;-72
2023/11/27 05:54:15;;;;;;;2.22;1.23;;;;;;;1.89;73.12;96937.75;4938312;28;20107;-72
2023/11/27 05:56:41;;;;;;;3.13;1.20;;;;;;;2.03;73.79;96958.00;4940461;28;20051;-72
2023/11/27 05:59:07;;;;;;;1.40;1.10;;;;;;;1.88;73.36;96936.03;4956656;28;20039;-73
2023/11/27 06:01:36;;;;;;;3.53;1.52;;;;;;;2.02;73.71;96959.72;4937861;28;20048;-72
2023/11/27 06:04:02;;;;;;;4.03;2.10;;;;;;;1.69;73.81;96903.06;4945426;28;20035;-73
2023/11/27 06:06:29;;;;;;;6.10;3.30;;;;;;;1.71;73.21;96921.84;4947252;29;20035;-73
2023/11/27 06:08:55;;;;;;;4.60;3.55;;;;;;;1.72;73.66;96946.63;4927409;28;20370;-73
2023/11/27 06:11:24;;;;;;;5.72;3.17;;;;;;;1.77;74.46;96960.19;4942376;28;20070;-72
2023/11/27 06:13:54;;;;;;;6.63;2.33;;;;;;;1.84;73.78;96973.75;4939605;28;20047;-71
2023/11/27 06:16:25;;;;;;;2.13;1.75;;;;;;;1.88;74.48;96967.69;4957135;28;20584;-72
2023/11/27 06:18:52;;;;;;;2.30;1.80;;;;;;;1.35;74.36;96906.28;4957782;28;20050;-73
2023/11/27 06:21:22;;;;;;;2.00;1.30;;;;;;;1.62;74.58;96951.06;4957175;28;20047;-73
2023/11/27 06:23:51;;;;;;;2.28;1.70;;;;;;;1.62;74.31;96955.38;4926696;28;20051;-74
2023/11/27 06:26:22;;;;;;;2.63;1.80;;;;;;;1.74;74.42;96969.69;4972174;28;20070;-75
2023/11/27 06:28:48;;;;;;;3.70;2.22;;;;;;;1.54;74.59;96936.72;4954513;28;20051;-73
2023/11/27 06:31:15;;;;;;;3.97;2.25;;;;;;;1.44;74.84;96923.22;4953068;28;20441;-72
2023/11/27 06:33:44;;;;;;;5.45;2.38;;;;;;;1.63;75.05;96955.31;4971325;28;20074;-78
2023/11/27 06:36:11;;;;;;;5.68;3.28;;;;;;;1.58;75.31;96946.03;4955982;28;20055;-73
2023/11/27 06:38:39;;;;;;;6.18;3.38;;;;;;;1.15;75.25;96897.25;4958494;28;20142;-75
2023/11/27 06:41:06;;;;;;;4.05;2.80;;;;;;;1.52;75.77;96928.19;4959550;28;20043;-72
2023/11/27 06:43:35;;;;;;;5.43;2.88;;;;;;;1.52;75.54;96930.75;4953848;28;20050;-71
2023/11/27 06:46:14;;;;;;;5.43;2.55;;;;;;;1.46;75.46;96912.06;4964960;28;20051;-78
2023/11/27 06:48:58;;;;;;;3.63;2.20;;;;;;;1.32;75.35;96896.97;4947887;28;20074;-72
2023/11/27 06:51:24;;;;;;;3.67;2.47;;;;;;;1.07;76.11;96860.66;4947259;28;20079;-79
2023/11/27 06:53:50;;;;;;;4.30;2.83;;;;;;;1.53;75.91;96935.00;4952265;28;20079;-74
2023/11/27 06:56:16;;;;;;;4.60;2.75;;;;;;;1.53;76.33;96947.84;4953327;28;20062;-70
2023/11/27 06:58:42;;;;;;;5.78;3.50;;;;;;;1.32;76.29;96907.22;4934193;28;20043;-74
2023/11/27 07:01:11;;;;;;;4.72;3.30;;;;;;;1.29;76.26;96903.84;4951100;28;20049;-76
2023/11/27 07:03:37;;;;;;;7.18;4.20;;;;;;;1.52;76.38;96907.69;4955999;28;20053;-78
2023/11/27 07:06:04;;;;;;;8.05;4.47;;;;;;;1.62;76.26;96924.59;4965835;28;20047;-78
2023/11/27 07:08:31;;;;;;;6.70;4.10;;;;;;;1.51;76.27;96922.25;4949547;28;20042;-77
2023/11/27 07:10:58;;;;;;;6.78;4.07;;;;;;;1.56;76.73;96922.97;4936069;28;20074;-78
2023/11/27 07:13:25;;;;;;;6.20;3.80;;;;;;;1.74;76.95;96933.78;4949478;28;20050;-74
2023/11/27 07:15:53;;;;;;;5.18;3.60;;;;;;;1.72;76.84;96931.22;4948979;28;20043;-75
2023/11/27 07:18:19;;;;;;;5.18;3.30;;;;;;;1.60;76.63;96913.53;4965098;28;20524;-74
2023/11/27 07:20:45;;;;;;;4.70;3.28;;;;;;;1.54;76.75;96916.19;4942530;28;20121;-78
2023/11/27 07:23:12;;;;;;;6.88;4.10;;;;;;;1.72;76.93;96944.06;4932008;28;20573;-76
2023/11/27 07:25:38;;;;;;;6.00;3.60;;;;;;;1.67;76.46;96920.22;4964710;28;20039;-74
2023/11/27 07:28:04;;;;;;;6.45;4.32;;;;;;;1.26;76.97;96858.63;4949631;28;20374;-72
2023/11/27 07:30:31;;;;;;;6.85;4.10;;;;;;;1.82;77.41;96949.00;4938012;28;20062;-74
2023/11/27 07:32:58;;;;;;;6.47;3.92;;;;;;;1.83;77.00;96943.84;4949938;28;20152;-75
2023/11/27 07:35:24;;;;;;;9.55;4.20;;;;;;;1.54;76.62;96901.69;4949175;28;20050;-73
2023/11/27 07:37:50;;;;;;;7.38;4.35;;;;;;;1.57;77.10;96914.41;4933850;28;20181;-74
2023/11/27 07:40:17;;;;;;;10.50;4.95;;;;;;;1.82;77.39;96924.19;4931150;28;20055;-76
2023/11/27 07:42:43;;;;;;;6.72;4.45;;;;;;;1.79;76.98;96912.28;4926644;28;20048;-73
2023/11/27 07:45:09;;;;;;;9.43;4.90;;;;;;;1.59;77.05;96889.59;4947264;28;20422;-75
2023/11/27 07:47:36;;;;;;;8.15;5.00;;;;;;;1.72;77.55;96889.38;4950693;28;20043;-76
2023/11/27 07:50:02;;;;;;;8.07;4.72;;;;;;;1.85;77.18;96916.44;4940000;28;20047;-76
2023/11/27 07:52:29;;;;;;;8.75;5.40;;;;;;;2.01;77.89;96927.25;4956434;28;20049;-76
2023/11/27 07:54:56;;;;;;;7.47;4.93;;;;;;;1.87;77.02;96930.09;4938471;28;20059;-76
2023/11/27 07:57:23;;;;;;;9.95;5.30;;;;;;;1.82;77.21;96921.63;4923385;28;20047;-76
2023/11/27 07:59:49;;;;;;;11.88;4.65;;;;;;;1.61;77.37;96889.59;4954956;28;20042;-75
2023/11/27 08:02:15;;;;;;;8.52;5.60;;;;;;;1.53;77.48;96858.97;4952613;28;20141;-75
2023/11/27 08:04:41;;;;;;;9.50;5.57;;;;;;;1.89;78.15;96899.28;4951503;28;20043;-77
2023/11/27 08:07:09;;;;;;;11.60;6.35;;;;;;;1.80;77.58;96898.59;4956778;28;20050;-71
2023/11/27 08:09:36;;;;;;;9.82;5.60;;;;;;;1.65;78.11;96896.34;4966869;28;20039;-73
2023/11/27 08:12:02;;;;;;;13.25;6.70;;;;;;;1.75;77.74;96894.44;4953847;28;20039;-72
2023/11/27 08:14:28;;;;;;;18.23;6.78;;;;;;;1.75;78.14;96881.63;4960381;28;20137;-74
2023/11/27 08:16:54;;;;;;;12.15;6.65;;;;;;;1.89;77.98;96900.13;4934055;28;20043;-73
2023/11/27 08:19:20;;;;;;;13.57;7.30;;;;;;;1.97;77.67;96912.78;4951270;28;20039;-72
2023/11/27 08:21:47;;;;;;;14.40;8.00;;;;;;;1.87;78.90;96894.19;4953333;28;20078;-74
2023/11/27 08:24:15;;;;;;;16.73;7.82;;;;;;;1.95;78.26;96894.88;4949486;28;20473;-73
2023/11/27 08:26:42;;;;;;;13.90;7.15;;;;;;;2.10;77.89;96883.44;4953326;28;20044;-72
2023/11/27 08:29:09;;;;;;;13.63;7.30;;;;;;;2.03;78.24;96870.78;4954966;28;20137;-75
2023/11/27 08:31:35;;;;;;;12.40;6.75;;;;;;;2.09;78.36;96866.38;4936701;28;20039;-73
2023/11/27 08:34:03;;;;;;;12.88;6.60;;;;;;;2.17;78.61;96847.38;4934760;29;20047;-74
2023/11/27 08:36:32;;;;;;;15.23;7.07;;;;;;;2.04;78.29;96827.16;4949581;28;20066;-74
2023/11/27 08:38:58;;;;;;;12.05;7.00;;;;;;;2.20;78.72;96843.06;4964846;28;20047;-75
2023/11/27 08:41:26;;;;;;;15.00;7.95;;;;;;;1.81;78.61;96786.59;4946974;29;20110;-74
2023/11/27 08:44:01;;;;;;;17.05;8.35;;;;;;;1.88;78.82;96807.81;4957717;28;20064;-74
2023/11/27 08:46:36;;;;;;;16.80;8.68;;;;;;;1.88;78.27;96803.56;4967915;28;20043;-81
2023/11/27 08:49:05;;;;;;;17.42;8.95;;;;;;;1.96;78.33;96805.94;4958114;28;20038;-73
2023/11/27 08:51:34;;;;;;;20.15;10.93;;;;;;;1.61;79.13;96716.09;4959025;28;20050;-75
2023/11/27 08:54:00;;;;;;;20.67;9.38;;;;;;;2.49;78.94;96845.81;4974994;28;20102;-72
2023/11/27 08:56:26;;;;;;;19.67;9.45;;;;;;;2.20;78.25;96834.50;4959126;28;20063;-73
2023/11/27 08:59:02;;;;;;;22.98;9.43;;;;;;;1.83;78.44;96756.66;4962536;28;20039;-74
2023/11/27 09:01:28;;;;;;;18.48;9.38;;;;;;;2.37;79.09;96841.81;4946567;29;20036;-71
2023/11/27 09:03:56;;;;;;;21.70;9.27;;;;;;;2.54;78.77;96882.47;4959292;28;20042;-77
2023/11/27 09:06:22;;;;;;;20.30;10.93;;;;;;;2.68;78.86;96906.13;4924722;28;20047;-73
2023/11/27 09:08:48;;;;;;;25.45;11.18;;;;;;;2.65;78.73;96890.78;4941162;28;20039;-73
2023/11/27 09:11:14;;;;;;;20.45;10.77;;;;;;;2.65;78.84;96871.97;4938706;28;20957;-73
2023/11/27 09:13:41;;;;;;;21.00;10.55;;;;;;;2.47;78.85;96875.81;4914189;28;20093;-72
2023/11/27 09:16:08;;;;;;;25.25;11.65;;;;;;;2.66;78.72;96918.16;4929431;28;20051;-73
2023/11/27 09:18:34;;;;;;;24.80;12.10;;;;;;;2.70;78.49;96904.38;4957719;28;20047;-71
2023/11/27 09:21:00;;;;;;;19.70;10.02;;;;;;;2.70;78.62;96888.09;4928452;29;20206;-73
2023/11/27 09:23:26;;;;;;;26.80;12.43;;;;;;;2.65;78.86;96867.66;4934159;28;20051;-77
2023/11/27 09:25:52;;;;;;;28.00;13.57;;;;;;;2.52;78.94;96854.28;4958353;28;20049;-73
2023/11/27 09:28:18;;;;;;;25.10;12.02;;;;;;;2.82;79.04;96877.53;4940898;29;20551;-73
2023/11/27 09:30:51;;;;;;;26.50;12.98;;;;;;;2.96;79.00;96884.91;4942490;28;20043;-77
2023/11/27 09:33:23;;;;;;;27.25;13.00;;;;;;;2.64;79.42;96827.47;4946978;28;20042;-77
2023/11/27 09:35:50;;;;;;;25.48;13.27;;;;;;;2.92;79.18;96839.63;4960539;28;20047;-78
2023/11/27 09:38:16;;;;;;;28.30;12.45;;;;;;;3.04;79.30;96848.75;4975666;28;20023;-74
2023/11/27 09:40:43;;;;;;;25.08;12.02;;;;;;;3.15;78.97;96864.72;4945501;28;20063;-73
2023/11/27 09:43:15;;;;;;;28.02;13.23;;;;;;;2.65;79.23;96792.38;4960845;28;20042;-71
2023/11/27 09:45:44;;;;;;;;;;;;;;;3.22;78.84;96878.25;4944952;28;20039;-82
2023/11/27 09:48:12;;;;;;;25.85;12.25;;;;;;;2.84;78.52;96832.13;4945109;28;19934;-71
2023/11/27 09:50:44;;;;;;;21.75;11.80;;;;;;;3.23;78.99;96881.66;4959686;28;20066;-71
2023/11/27 09:53:16;;;;;;;24.65;11.05;;;;;;;3.11;78.48;96880.25;4929680;28;20036;-74
2023/11/27 09:55:44;;;;;;;22.00;11.30;;;;;;;2.80;78.47;96833.06;4953437;28;20059;-74
2023/11/27 09:58:10;;;;;;;22.35;11.80;;;;;;;2.92;79.03;96842.19;4960289;28;20035;-75
2023/11/27 10:00:41;;;;;;;21.95;10.95;;;;;;;3.24;78.92;96873.91;4944787;28;20046;-80
2023/11/27 10:03:10;;;;;;;24.25;11.50;;;;;;;3.20;78.88;96864.59;4953082;29;20047;-70
2023/11/27 10:05:37;;;;;;;21.92;11.30;;;;;;;3.06;78.76;96840.97;4955517;28;20035;-73
2023/11/27 10:08:08;;;;;;;19.98;10.38;;;;;;;3.15;79.00;96869.03;4954642;28;20066;-72
2023/11/27 10:10:47;;;;;;;24.65;11.93;;;;;;;2.90;78.38;96830.25;4931833;29;20020;-78
2023/11/27 10:13:18;;;;;;;23.45;11.48;;;;;;;3.06;78.60;96841.84;4952060;28;20039;-74
2023/11/27 10:15:53;;;;;;;22.25;10.65;;;;;;;3.31;79.12;96869.47;4944385;28;20054;-73
2023/11/27 10:18:33;;;;;;;17.90;9.73;;;;;;;2.96;78.43;96799.28;4958186;28;20070;-73
2023/11/27 10:20:59;;;;;;;16.77;10.02;;;;;;;3.09;78.64;96843.47;4940024;29;20532;-67
2023/11/27 10:23:33;;;;;;;22.30;10.43;;;;;;;2.94;79.02;96803.59;4943666;28;20131;-70
2023/11/27 10:26:03;;;;;;;17.33;9.77;;;;;;;3.28;78.58;96861.84;4959483;28;20098;-69
2023/11/27 10:28:57;;;;;;;19.60;9.93;;;;;;;3.24;78.93;96852.53;4941325;28;20043;-68
2023/11/27 10:31:33;;;;;;;20.65;10.15;;;;;;;3.10;78.44;96830.56;4944770;28;20043;-77
2023/11/27 10:33:59;;;;;;;21.85;11.45;;;;;;;3.13;78.63;96827.94;4924395;29;20438;-71
2023/11/27 10:36:41;;;;;;;23.83;12.45;;;;;;;3.04;79.19;96799.94;4960502;28;20043;-79
2023/11/27 10:39:15;;;;;;;22.13;11.88;;;;;;;3.25;79.04;96816.47;4958209;28;20043;-76
2023/11/27 10:41:50;;;;;;;24.30;13.60;;;;;;;3.44;79.37;96833.97;4955859;28;20043;-72
2023/11/27 10:44:17;;;;;;;23.08;12.00;;;;;;;3.41;78.46;96834.91;4942804;28;20035;-74
2023/11/27 10:46:47;;;;;;;20.50;10.48;;;;;;;3.21;78.64;96804.59;4955568;28;20059;-78
2023/11/27 10:49:16;;;;;;;23.08;12.48;;;;;;;3.15;78.39;96791.94;4962090;28;20043;-72
2023/11/27 10:51:50;;;;;;;21.48;11.48;;;;;;;3.30;78.69;96822.34;4938841;28;20081;-71
2023/11/27 10:54:24;;;;;;;25.80;13.38;;;;;;;3.26;78.57;96827.63;4956558;28;20036;-71
2023/11/27 10:56:53;;;;;;;22.90;12.38;;;;;;;2.43;79.43;96686.81;4967448;28;20103;-71
2023/11/27 10:59:23;;;;;;;25.17;13.43;;;;;;;3.12;78.51;96820.28;4941532;28;20050;-70
2023/11/27 11:02:00;;;;;;;28.20;14.68;;;;;;;2.92;78.73;96757.44;4968188;28;20039;-68
2023/11/27 11:05:00;;;;;;;29.17;15.75;;;;;;;3.39;78.67;96836.69;4954112;28;20039;-71
2023/11/27 11:07:39;;;;;;;20.30;12.30;;;;;;;3.46;79.22;96837.34;4923342;29;20081;-70
2023/11/27 11:10:26;;;;;;;19.10;11.55;;;;;;;3.24;79.02;96783.97;4954658;28;20057;-70
2023/11/27 11:13:02;;;;;;;20.88;12.35;;;;;;;3.39;78.54;96816.09;4938824;28;20043;-70
2023/11/27 11:15:50;;;;;;;18.88;11.18;;;;;;;3.27;78.33;96804.44;4969864;28;20410;-69
2023/11/27 11:18:34;;;;;;;20.75;12.43;;;;;;;3.35;78.66;96793.94;4951436;28;20206;-69
2023/11/27 11:21:23;;;;;;;15.82;9.80;;;;;;;3.48;78.21;96817.56;4932543;28;20046;-70
2023/11/27 11:24:23;;;;;;;19.40;9.77;;;;;;;3.42;78.45;96787.75;4937391;28;20498;-70
2023/11/27 11:27:17;;;;;;;14.30;8.15;;;;;;;3.53;78.70;96820.88;4955036;28;20067;-70
2023/11/27 11:29:44;;;;;;;18.25;9.18;;;;;;;3.49;78.33;96795.28;4953096;28;20070;-68
2023/11/27 11:32:16;;;;;;;11.43;7.20;;;;;;;3.43;78.27;96786.00;4921581;28;20043;-69
2023/11/27 11:34:54;;;;;;;15.70;8.07;;;;;;;3.54;78.30;96809.69;4936380;28;20214;-67
2023/11/27 11:37:20;;;;;;;12.43;6.35;;;;;;;3.47;78.14;96797.91;4935653;28;20047;-70
2023/11/27 11:39:53;;;;;;;17.33;7.57;;;;;;;3.46;78.33;96804.78;4953430;28;20062;-69